sensor_id;sensor_type;location;lat;lon;timestamp;pressure;altitude;pressure_sealevel;temperature;humidity
250;BME280;109;19.806;-70.704;2023-05-29T00:01:35;101222.41;;;27.81;65.82
250;BME280;109;19.806;-70.704;2023-05-29T00:04:03;101230.94;;;27.88;65.60
250;BME280;109;19.806;-70.704;2023-05-29T00:06:30;101231.63;;;27.91;65.37
250;BME280;109;19.806;-70.704;2023-05-29T00:08:57;101236.94;;;27.93;64.90
250;BME280;109;19.806;-70.704;2023-05-29T00:11:23;101247.34;;;27.99;65.34
250;BME280;109;19.806;-70.704;2023-05-29T00:13:50;101243.09;;;27.95;65.39
250;BME280;109;19.806;-70.704;2023-05-29T00:16:23;101249.69;;;28.05;65.60
250;BME280;109;19.806;-70.704;2023-05-29T00:18:50;101249.84;;;28.02;66.13
250;BME280;109;19.806;-70.704;2023-05-29T00:21:25;101253.41;;;28.03;65.92
250;BME280;109;19.806;-70.704;2023-05-29T00:23:51;101251.75;;;28.00;65.10
250;BME280;109;19.806;-70.704;2023-05-29T00:26:25;101248.25;;;28.14;64.91
250;BME280;109;19.806;-70.704;2023-05-29T00:28:54;101262.88;;;28.24;64.71
250;BME280;109;19.806;-70.704;2023-05-29T00:31:27;101256.53;;;28.25;64.27
250;BME280;109;19.806;-70.704;2023-05-29T00:33:54;101263.56;;;28.28;64.25
250;BME280;109;19.806;-70.704;2023-05-29T00:36:27;101264.59;;;28.25;64.17
250;BME280;109;19.806;-70.704;2023-05-29T00:38:54;101263.34;;;28.16;64.02
250;BME280;109;19.806;-70.704;2023-05-29T00:41:28;101251.53;;;28.19;64.07
250;BME280;109;19.806;-70.704;2023-05-29T00:43:54;101259.41;;;28.22;63.97
250;BME280;109;19.806;-70.704;2023-05-29T00:46:28;101261.63;;;28.15;64.22
250;BME280;109;19.806;-70.704;2023-05-29T00:48:56;101264.47;;;28.12;63.67
250;BME280;109;19.806;-70.704;2023-05-29T00:51:29;101259.88;;;28.14;64.02
250;BME280;109;19.806;-70.704;2023-05-29T00:53:57;101258.63;;;28.06;63.98
250;BME280;109;19.806;-70.704;2023-05-29T00:56:32;101258.28;;;27.96;64.23
250;BME280;109;19.806;-70.704;2023-05-29T00:59:01;101251.00;;;27.98;64.29
250;BME280;109;19.806;-70.704;2023-05-29T01:01:35;101261.06;;;27.95;64.29
250;BME280;109;19.806;-70.704;2023-05-29T01:04:03;101252.81;;;27.98;63.99
250;BME280;109;19.806;-70.704;2023-05-29T01:06:40;101256.44;;;27.97;64.36
250;BME280;109;19.806;-70.704;2023-05-29T01:09:22;101254.28;;;28.03;64.47
250;BME280;109;19.806;-70.704;2023-05-29T01:14:45;101271.56;;;27.99;64.19
250;BME280;109;19.806;-70.704;2023-05-29T01:28:56;101281.31;;;28.16;63.46
250;BME280;109;19.806;-70.704;2023-05-29T01:31:31;101279.75;;;28.12;63.30
250;BME280;109;19.806;-70.704;2023-05-29T01:33:59;101268.81;;;28.15;63.67
250;BME280;109;19.806;-70.704;2023-05-29T01:36:33;101274.16;;;28.31;63.39
250;BME280;109;19.806;-70.704;2023-05-29T01:39:02;101281.06;;;28.20;63.54
250;BME280;109;19.806;-70.704;2023-05-29T01:41:36;101280.66;;;28.26;63.42
250;BME280;109;19.806;-70.704;2023-05-29T01:44:07;101286.13;;;28.25;63.25
250;BME280;109;19.806;-70.704;2023-05-29T01:46:46;101293.25;;;28.26;63.42
250;BME280;109;19.806;-70.704;2023-05-29T01:49:14;101286.44;;;28.20;63.52
250;BME280;109;19.806;-70.704;2023-05-29T01:51:48;101290.94;;;28.20;63.25
250;BME280;109;19.806;-70.704;2023-05-29T01:54:15;101300.25;;;28.14;63.47
250;BME280;109;19.806;-70.704;2023-05-29T01:56:49;101302.34;;;28.09;64.05
250;BME280;109;19.806;-70.704;2023-05-29T01:59:16;101297.94;;;28.22;63.20
250;BME280;109;19.806;-70.704;2023-05-29T02:01:50;101300.84;;;28.19;63.36
250;BME280;109;19.806;-70.704;2023-05-29T02:04:16;101305.63;;;28.14;63.24
250;BME280;109;19.806;-70.704;2023-05-29T02:06:57;101298.69;;;28.10;63.07
250;BME280;109;19.806;-70.704;2023-05-29T02:09:31;101305.44;;;28.17;62.92
250;BME280;109;19.806;-70.704;2023-05-29T02:11:57;101301.28;;;28.12;62.78
250;BME280;109;19.806;-70.704;2023-05-29T02:14:31;101312.84;;;28.14;62.74
250;BME280;109;19.806;-70.704;2023-05-29T02:16:58;101298.50;;;28.13;62.56
250;BME280;109;19.806;-70.704;2023-05-29T02:19:31;101303.41;;;28.07;62.57
250;BME280;109;19.806;-70.704;2023-05-29T02:21:57;101297.81;;;28.10;62.71
250;BME280;109;19.806;-70.704;2023-05-29T02:24:31;101300.25;;;28.14;62.56
250;BME280;109;19.806;-70.704;2023-05-29T02:26:57;101302.44;;;28.08;62.47
250;BME280;109;19.806;-70.704;2023-05-29T02:29:31;101307.31;;;28.01;62.64
250;BME280;109;19.806;-70.704;2023-05-29T02:31:57;101309.47;;;27.95;62.69
250;BME280;109;19.806;-70.704;2023-05-29T02:34:33;101312.00;;;27.98;62.26
250;BME280;109;19.806;-70.704;2023-05-29T02:36:59;101302.09;;;27.98;62.70
250;BME280;109;19.806;-70.704;2023-05-29T02:39:32;101306.72;;;27.96;62.83
250;BME280;109;19.806;-70.704;2023-05-29T02:41:58;101306.34;;;28.02;62.61
250;BME280;109;19.806;-70.704;2023-05-29T02:44:32;101300.38;;;27.97;62.72
250;BME280;109;19.806;-70.704;2023-05-29T02:46:58;101295.16;;;27.94;62.77
250;BME280;109;19.806;-70.704;2023-05-29T02:49:32;101303.06;;;27.97;62.97
250;BME280;109;19.806;-70.704;2023-05-29T02:51:58;101307.22;;;27.87;63.01
250;BME280;109;19.806;-70.704;2023-05-29T02:54:32;101296.63;;;27.84;62.93
250;BME280;109;19.806;-70.704;2023-05-29T02:56:58;101299.09;;;27.73;63.31
250;BME280;109;19.806;-70.704;2023-05-29T02:59:32;101306.91;;;27.77;63.63
250;BME280;109;19.806;-70.704;2023-05-29T03:02:05;101311.91;;;27.83;63.48
250;BME280;109;19.806;-70.704;2023-05-29T03:04:39;101312.53;;;27.73;63.98
250;BME280;109;19.806;-70.704;2023-05-29T03:07:25;101303.34;;;27.77;64.03
250;BME280;109;19.806;-70.704;2023-05-29T03:09:59;101304.13;;;27.79;64.00
250;BME280;109;19.806;-70.704;2023-05-29T03:12:26;101312.78;;;27.84;64.22
250;BME280;109;19.806;-70.704;2023-05-29T03:15:00;101301.59;;;27.76;63.76
250;BME280;109;19.806;-70.704;2023-05-29T03:17:28;101300.56;;;27.78;63.93
250;BME280;109;19.806;-70.704;2023-05-29T03:20:01;101308.47;;;27.81;63.95
250;BME280;109;19.806;-70.704;2023-05-29T03:22:38;101314.19;;;27.75;63.78
250;BME280;109;19.806;-70.704;2023-05-29T03:25:06;101307.53;;;27.67;63.58
250;BME280;109;19.806;-70.704;2023-05-29T03:27:40;101302.66;;;27.58;63.87
250;BME280;109;19.806;-70.704;2023-05-29T03:30:12;101307.25;;;27.40;64.29
250;BME280;109;19.806;-70.704;2023-05-29T03:32:46;101303.34;;;27.61;64.12
250;BME280;109;19.806;-70.704;2023-05-29T03:35:12;101299.53;;;27.65;63.91
250;BME280;109;19.806;-70.704;2023-05-29T03:37:46;101293.56;;;27.60;63.47
250;BME280;109;19.806;-70.704;2023-05-29T03:40:13;101283.41;;;27.49;63.14
250;BME280;109;19.806;-70.704;2023-05-29T03:42:46;101296.75;;;27.35;63.22
250;BME280;109;19.806;-70.704;2023-05-29T03:45:15;101303.03;;;27.51;62.61
250;BME280;109;19.806;-70.704;2023-05-29T03:47:48;101290.09;;;27.42;62.44
250;BME280;109;19.806;-70.704;2023-05-29T03:50:14;101300.66;;;27.30;62.88
250;BME280;109;19.806;-70.704;2023-05-29T03:52:48;101291.66;;;27.31;62.84
250;BME280;109;19.806;-70.704;2023-05-29T03:55:15;101288.84;;;27.32;62.85
250;BME280;109;19.806;-70.704;2023-05-29T03:57:48;101303.16;;;27.33;63.02
250;BME280;109;19.806;-70.704;2023-05-29T04:00:16;101300.66;;;27.30;62.79
250;BME280;109;19.806;-70.704;2023-05-29T04:02:59;101307.06;;;27.43;62.58
250;BME280;109;19.806;-70.704;2023-05-29T04:05:33;101306.38;;;27.39;62.50
250;BME280;109;19.806;-70.704;2023-05-29T04:08:19;101306.47;;;27.38;62.79
250;BME280;109;19.806;-70.704;2023-05-29T04:10:53;101301.94;;;27.38;62.90
250;BME280;109;19.806;-70.704;2023-05-29T04:13:21;101302.47;;;27.29;62.76
250;BME280;109;19.806;-70.704;2023-05-29T04:15:54;101304.03;;;27.33;63.13
250;BME280;109;19.806;-70.704;2023-05-29T04:18:21;101306.13;;;27.28;62.66
250;BME280;109;19.806;-70.704;2023-05-29T04:20:54;101294.25;;;27.16;63.50
250;BME280;109;19.806;-70.704;2023-05-29T04:23:21;101299.88;;;27.28;63.51
250;BME280;109;19.806;-70.704;2023-05-29T04:25:54;101306.38;;;27.24;63.42
250;BME280;109;19.806;-70.704;2023-05-29T04:28:25;101305.91;;;27.31;63.62
250;BME280;109;19.806;-70.704;2023-05-29T04:31:00;101303.06;;;27.34;63.60
250;BME280;109;19.806;-70.704;2023-05-29T04:33:26;101299.25;;;27.38;63.22
250;BME280;109;19.806;-70.704;2023-05-29T04:36:01;101290.41;;;27.36;63.42
250;BME280;109;19.806;-70.704;2023-05-29T04:38:31;101279.50;;;27.39;63.37
250;BME280;109;19.806;-70.704;2023-05-29T04:41:04;101285.75;;;27.40;63.87
250;BME280;109;19.806;-70.704;2023-05-29T04:43:38;101267.97;;;27.37;63.51
250;BME280;109;19.806;-70.704;2023-05-29T04:46:13;101273.66;;;27.31;63.66
250;BME280;109;19.806;-70.704;2023-05-29T04:48:41;101272.72;;;27.32;63.90
250;BME280;109;19.806;-70.704;2023-05-29T04:51:16;101272.53;;;27.35;63.94
250;BME280;109;19.806;-70.704;2023-05-29T04:53:46;101257.66;;;27.30;64.05
250;BME280;109;19.806;-70.704;2023-05-29T04:56:20;101259.41;;;27.31;64.12
250;BME280;109;19.806;-70.704;2023-05-29T04:58:48;101256.78;;;27.29;63.83
250;BME280;109;19.806;-70.704;2023-05-29T05:01:21;101255.22;;;27.25;63.54
250;BME280;109;19.806;-70.704;2023-05-29T05:03:50;101248.44;;;27.18;63.78
250;BME280;109;19.806;-70.704;2023-05-29T05:06:24;101249.66;;;27.12;63.05
250;BME280;109;19.806;-70.704;2023-05-29T05:09:10;101245.56;;;27.05;62.30
250;BME280;109;19.806;-70.704;2023-05-29T05:11:44;101235.44;;;27.10;62.19
250;BME280;109;19.806;-70.704;2023-05-29T05:14:11;101224.88;;;27.07;62.24
250;BME280;109;19.806;-70.704;2023-05-29T05:16:44;101229.47;;;27.05;62.18
250;BME280;109;19.806;-70.704;2023-05-29T05:19:10;101220.03;;;27.14;61.91
250;BME280;109;19.806;-70.704;2023-05-29T05:21:44;101226.78;;;27.05;61.57
250;BME280;109;19.806;-70.704;2023-05-29T05:24:12;101223.56;;;26.99;62.07
250;BME280;109;19.806;-70.704;2023-05-29T05:26:45;101224.69;;;26.95;62.29
250;BME280;109;19.806;-70.704;2023-05-29T05:29:11;101222.09;;;26.93;61.96
250;BME280;109;19.806;-70.704;2023-05-29T05:31:45;101225.72;;;26.92;61.69
250;BME280;109;19.806;-70.704;2023-05-29T05:34:11;101222.56;;;26.84;61.92
250;BME280;109;19.806;-70.704;2023-05-29T05:36:52;101218.84;;;26.86;61.85
250;BME280;109;19.806;-70.704;2023-05-29T05:39:26;101210.19;;;26.81;62.07
250;BME280;109;19.806;-70.704;2023-05-29T05:41:53;101208.78;;;26.92;62.10
250;BME280;109;19.806;-70.704;2023-05-29T05:44:41;101208.91;;;26.89;61.65
250;BME280;109;19.806;-70.704;2023-05-29T05:47:15;101192.25;;;26.82;62.13
250;BME280;109;19.806;-70.704;2023-05-29T05:49:41;101191.03;;;26.88;62.39
250;BME280;109;19.806;-70.704;2023-05-29T05:52:16;101183.78;;;26.90;61.92
250;BME280;109;19.806;-70.704;2023-05-29T05:54:42;101179.81;;;26.97;62.52
250;BME280;109;19.806;-70.704;2023-05-29T05:57:26;101178.16;;;26.94;62.39
250;BME280;109;19.806;-70.704;2023-05-29T06:00:14;101175.88;;;26.86;61.53
250;BME280;109;19.806;-70.704;2023-05-29T06:02:47;101173.28;;;26.85;61.83
250;BME280;109;19.806;-70.704;2023-05-29T06:05:27;101171.91;;;26.78;61.94
250;BME280;109;19.806;-70.704;2023-05-29T06:08:01;101161.06;;;26.79;62.43
250;BME280;109;19.806;-70.704;2023-05-29T06:10:48;101162.19;;;26.75;62.00
250;BME280;109;19.806;-70.704;2023-05-29T06:13:22;101153.19;;;26.76;61.87
250;BME280;109;19.806;-70.704;2023-05-29T06:15:53;101146.50;;;26.68;61.23
250;BME280;109;19.806;-70.704;2023-05-29T06:18:27;101151.19;;;26.64;61.14
250;BME280;109;19.806;-70.704;2023-05-29T06:20:54;101149.47;;;26.63;61.62
250;BME280;109;19.806;-70.704;2023-05-29T06:23:27;101135.75;;;26.68;61.09
250;BME280;109;19.806;-70.704;2023-05-29T06:25:54;101137.88;;;26.78;60.59
250;BME280;109;19.806;-70.704;2023-05-29T06:28:27;101142.00;;;26.68;60.76
250;BME280;109;19.806;-70.704;2023-05-29T06:30:55;101134.63;;;26.72;60.69
250;BME280;109;19.806;-70.704;2023-05-29T06:33:29;101133.16;;;26.82;60.65
250;BME280;109;19.806;-70.704;2023-05-29T06:35:55;101132.13;;;26.84;60.36
250;BME280;109;19.806;-70.704;2023-05-29T06:38:29;101136.25;;;26.92;60.26
250;BME280;109;19.806;-70.704;2023-05-29T06:40:55;101138.97;;;26.90;60.31
250;BME280;109;19.806;-70.704;2023-05-29T06:43:29;101139.75;;;26.92;60.27
250;BME280;109;19.806;-70.704;2023-05-29T06:45:57;101137.25;;;26.89;60.14
250;BME280;109;19.806;-70.704;2023-05-29T06:48:33;101140.81;;;26.90;60.86
250;BME280;109;19.806;-70.704;2023-05-29T06:51:07;101145.56;;;26.84;61.25
250;BME280;109;19.806;-70.704;2023-05-29T06:53:47;101133.59;;;26.90;61.39
250;BME280;109;19.806;-70.704;2023-05-29T06:56:21;101136.13;;;26.93;61.26
250;BME280;109;19.806;-70.704;2023-05-29T06:58:55;101131.78;;;26.91;61.67
250;BME280;109;19.806;-70.704;2023-05-29T07:01:22;101132.56;;;26.93;61.29
250;BME280;109;19.806;-70.704;2023-05-29T07:04:01;101128.25;;;26.90;61.36
250;BME280;109;19.806;-70.704;2023-05-29T07:06:34;101125.81;;;26.85;61.78
250;BME280;109;19.806;-70.704;2023-05-29T07:09:20;101128.19;;;26.92;62.47
250;BME280;109;19.806;-70.704;2023-05-29T07:12:01;101122.00;;;26.90;61.90
250;BME280;109;19.806;-70.704;2023-05-29T07:14:35;101111.69;;;26.82;61.45
250;BME280;109;19.806;-70.704;2023-05-29T07:17:01;101115.41;;;26.79;61.50
250;BME280;109;19.806;-70.704;2023-05-29T07:19:36;101105.28;;;26.69;61.90
250;BME280;109;19.806;-70.704;2023-05-29T07:22:04;101111.09;;;26.77;61.85
250;BME280;109;19.806;-70.704;2023-05-29T07:24:37;101110.47;;;26.72;61.94
250;BME280;109;19.806;-70.704;2023-05-29T07:27:05;101113.06;;;26.73;62.22
250;BME280;109;19.806;-70.704;2023-05-29T07:29:38;101114.81;;;26.74;62.18
250;BME280;109;19.806;-70.704;2023-05-29T07:32:05;101107.53;;;26.76;61.61
250;BME280;109;19.806;-70.704;2023-05-29T07:34:38;101113.06;;;26.73;62.23
250;BME280;109;19.806;-70.704;2023-05-29T07:37:06;101121.22;;;26.72;61.79
250;BME280;109;19.806;-70.704;2023-05-29T07:39:39;101114.66;;;26.77;62.40
250;BME280;109;19.806;-70.704;2023-05-29T07:42:26;101111.75;;;26.80;61.71
250;BME280;109;19.806;-70.704;2023-05-29T07:44:59;101103.19;;;26.74;61.75
250;BME280;109;19.806;-70.704;2023-05-29T07:47:26;101101.63;;;26.70;61.97
250;BME280;109;19.806;-70.704;2023-05-29T07:49:59;101101.38;;;26.74;61.82
250;BME280;109;19.806;-70.704;2023-05-29T07:52:27;101106.06;;;26.71;61.82
250;BME280;109;19.806;-70.704;2023-05-29T07:55:01;101096.34;;;26.68;61.59
250;BME280;109;19.806;-70.704;2023-05-29T07:57:35;101100.19;;;26.64;61.29
250;BME280;109;19.806;-70.704;2023-05-29T08:00:09;101103.03;;;26.61;61.27
250;BME280;109;19.806;-70.704;2023-05-29T08:02:47;101101.13;;;26.63;61.53
250;BME280;109;19.806;-70.704;2023-05-29T08:05:31;101091.09;;;26.51;60.78
250;BME280;109;19.806;-70.704;2023-05-29T08:08:09;101087.16;;;26.41;61.88
250;BME280;109;19.806;-70.704;2023-05-29T08:10:49;101086.59;;;26.34;61.44
250;BME280;109;19.806;-70.704;2023-05-29T08:13:15;101076.53;;;26.39;61.86
250;BME280;109;19.806;-70.704;2023-05-29T08:15:49;101076.16;;;26.45;61.33
250;BME280;109;19.806;-70.704;2023-05-29T08:18:15;101069.06;;;26.44;61.30
250;BME280;109;19.806;-70.704;2023-05-29T08:20:49;101065.53;;;26.44;61.56
250;BME280;109;19.806;-70.704;2023-05-29T08:23:16;101061.72;;;26.48;61.87
250;BME280;109;19.806;-70.704;2023-05-29T08:25:49;101056.34;;;26.48;61.73
250;BME280;109;19.806;-70.704;2023-05-29T08:28:22;101058.16;;;26.47;61.61
250;BME280;109;19.806;-70.704;2023-05-29T08:30:56;101065.97;;;26.52;61.13
250;BME280;109;19.806;-70.704;2023-05-29T08:33:22;101068.91;;;26.47;61.35
250;BME280;109;19.806;-70.704;2023-05-29T08:35:58;101068.03;;;26.47;60.85
250;BME280;109;19.806;-70.704;2023-05-29T08:38:24;101077.38;;;26.56;60.80
250;BME280;109;19.806;-70.704;2023-05-29T08:40:59;101083.97;;;26.50;61.39
250;BME280;109;19.806;-70.704;2023-05-29T08:43:30;101082.94;;;26.53;61.26
250;BME280;109;19.806;-70.704;2023-05-29T08:46:03;101079.25;;;26.38;60.44
250;BME280;109;19.806;-70.704;2023-05-29T08:48:30;101081.31;;;26.33;60.83
250;BME280;109;19.806;-70.704;2023-05-29T08:51:03;101082.34;;;26.30;60.25
250;BME280;109;19.806;-70.704;2023-05-29T08:53:31;101090.31;;;26.32;60.94
250;BME280;109;19.806;-70.704;2023-05-29T08:56:05;101090.91;;;26.21;60.42
250;BME280;109;19.806;-70.704;2023-05-29T08:58:39;101096.22;;;26.23;60.59
250;BME280;109;19.806;-70.704;2023-05-29T09:01:14;101105.03;;;26.25;61.12
250;BME280;109;19.806;-70.704;2023-05-29T09:03:41;101096.28;;;26.21;61.11
250;BME280;109;19.806;-70.704;2023-05-29T09:06:14;101104.56;;;26.16;61.21
250;BME280;109;19.806;-70.704;2023-05-29T09:09:03;101098.81;;;26.24;61.54
250;BME280;109;19.806;-70.704;2023-05-29T09:11:37;101107.25;;;26.16;60.94
250;BME280;109;19.806;-70.704;2023-05-29T09:14:04;101116.09;;;26.19;61.38
250;BME280;109;19.806;-70.704;2023-05-29T09:16:41;101121.13;;;26.25;61.08
250;BME280;109;19.806;-70.704;2023-05-29T09:19:16;101123.75;;;26.26;61.23
250;BME280;109;19.806;-70.704;2023-05-29T09:21:43;101124.19;;;26.34;61.34
250;BME280;109;19.806;-70.704;2023-05-29T09:24:17;101123.03;;;26.23;60.56
250;BME280;109;19.806;-70.704;2023-05-29T09:26:51;101116.00;;;26.20;60.80
250;BME280;109;19.806;-70.704;2023-05-29T09:29:40;101121.13;;;26.25;60.96
250;BME280;109;19.806;-70.704;2023-05-29T09:32:17;101115.50;;;26.29;60.57
250;BME280;109;19.806;-70.704;2023-05-29T09:34:53;101110.22;;;26.28;60.64
250;BME280;109;19.806;-70.704;2023-05-29T09:37:20;101109.28;;;26.29;61.01
250;BME280;109;19.806;-70.704;2023-05-29T09:39:55;101112.41;;;26.37;60.69
250;BME280;109;19.806;-70.704;2023-05-29T09:42:22;101110.69;;;26.36;61.19
250;BME280;109;19.806;-70.704;2023-05-29T09:44:55;101112.75;;;26.31;62.05
250;BME280;109;19.806;-70.704;2023-05-29T09:47:22;101120.00;;;26.29;62.18
250;BME280;109;19.806;-70.704;2023-05-29T09:49:56;101119.72;;;26.17;62.15
250;BME280;109;19.806;-70.704;2023-05-29T09:52:22;101123.94;;;26.06;62.80
250;BME280;109;19.806;-70.704;2023-05-29T09:54:57;101112.69;;;25.99;63.05
250;BME280;109;19.806;-70.704;2023-05-29T09:57:24;101126.41;;;25.93;62.77
250;BME280;109;19.806;-70.704;2023-05-29T10:00:00;101121.84;;;25.95;62.68
250;BME280;109;19.806;-70.704;2023-05-29T10:02:37;101124.66;;;25.92;62.56
250;BME280;109;19.806;-70.704;2023-05-29T10:05:12;101117.72;;;25.88;62.81
250;BME280;109;19.806;-70.704;2023-05-29T10:08:00;101114.09;;;25.89;62.82
250;BME280;109;19.806;-70.704;2023-05-29T10:10:34;101116.69;;;25.91;63.15
250;BME280;109;19.806;-70.704;2023-05-29T10:13:05;101122.25;;;25.88;62.63
250;BME280;109;19.806;-70.704;2023-05-29T10:15:44;101123.72;;;25.93;62.66
250;BME280;109;19.806;-70.704;2023-05-29T10:18:24;101119.88;;;25.99;62.77
250;BME280;109;19.806;-70.704;2023-05-29T10:21:00;101129.31;;;25.89;61.97
250;BME280;109;19.806;-70.704;2023-05-29T10:23:29;101136.50;;;25.88;62.33
250;BME280;109;19.806;-70.704;2023-05-29T10:26:12;101140.03;;;25.89;62.57
250;BME280;109;19.806;-70.704;2023-05-29T10:38:02;101164.44;;;26.34;61.77
250;BME280;109;19.806;-70.704;2023-05-29T10:40:41;101169.09;;;26.48;62.04
250;BME280;109;19.806;-70.704;2023-05-29T10:43:08;101175.91;;;26.54;61.59
250;BME280;109;19.806;-70.704;2023-05-29T10:51:27;101202.72;;;26.71;61.30
250;BME280;109;19.806;-70.704;2023-05-29T10:54:01;101206.63;;;26.81;61.37
250;BME280;109;19.806;-70.704;2023-05-29T10:56:30;101206.13;;;26.90;60.54
250;BME280;109;19.806;-70.704;2023-05-29T10:59:12;101215.44;;;27.00;59.75
250;BME280;109;19.806;-70.704;2023-05-29T11:01:39;101220.13;;;27.12;60.12
250;BME280;109;19.806;-70.704;2023-05-29T11:06:46;101251.25;;;27.16;59.46
250;BME280;109;19.806;-70.704;2023-05-29T11:09:30;101252.09;;;27.17;59.06
250;BME280;109;19.806;-70.704;2023-05-29T11:15:08;101272.47;;;27.37;58.84
250;BME280;109;19.806;-70.704;2023-05-29T11:20:08;101274.06;;;27.57;58.88
250;BME280;109;19.806;-70.704;2023-05-29T11:23:00;101278.19;;;27.78;58.06
250;BME280;109;19.806;-70.704;2023-05-29T11:25:28;101281.88;;;27.91;57.69
250;BME280;109;19.806;-70.704;2023-05-29T11:27:54;101281.19;;;28.03;57.59
250;BME280;109;19.806;-70.704;2023-05-29T11:30:21;101276.97;;;28.13;57.83
250;BME280;109;19.806;-70.704;2023-05-29T11:32:48;101286.31;;;28.22;57.54
250;BME280;109;19.806;-70.704;2023-05-29T11:35:21;101286.56;;;28.33;57.36
250;BME280;109;19.806;-70.704;2023-05-29T11:37:48;101295.94;;;28.56;57.02
250;BME280;109;19.806;-70.704;2023-05-29T11:40:16;101300.38;;;28.57;56.97
250;BME280;109;19.806;-70.704;2023-05-29T11:42:44;101291.13;;;28.75;56.46
250;BME280;109;19.806;-70.704;2023-05-29T11:45:16;101297.13;;;28.94;56.51
250;BME280;109;19.806;-70.704;2023-05-29T11:47:58;101295.59;;;29.05;55.58
250;BME280;109;19.806;-70.704;2023-05-29T11:50:32;101297.66;;;29.28;55.17
250;BME280;109;19.806;-70.704;2023-05-29T11:53:00;101297.91;;;29.11;54.93
250;BME280;109;19.806;-70.704;2023-05-29T11:55:27;101304.44;;;29.21;55.17
250;BME280;109;19.806;-70.704;2023-05-29T11:58:03;101304.75;;;29.43;55.67
250;BME280;109;19.806;-70.704;2023-05-29T12:00:37;101312.41;;;29.51;54.75
250;BME280;109;19.806;-70.704;2023-05-29T12:03:05;101307.56;;;29.42;54.58
250;BME280;109;19.806;-70.704;2023-05-29T12:05:54;101316.53;;;29.28;54.96
250;BME280;109;19.806;-70.704;2023-05-29T12:08:22;101312.59;;;29.34;55.01
250;BME280;109;19.806;-70.704;2023-05-29T12:10:51;101302.78;;;29.33;54.93
250;BME280;109;19.806;-70.704;2023-05-29T12:13:19;101306.91;;;29.38;55.11
250;BME280;109;19.806;-70.704;2023-05-29T12:15:46;101305.97;;;29.66;55.58
250;BME280;109;19.806;-70.704;2023-05-29T12:18:14;101300.28;;;29.71;55.08
250;BME280;109;19.806;-70.704;2023-05-29T12:20:41;101307.88;;;29.37;55.23
250;BME280;109;19.806;-70.704;2023-05-29T12:23:08;101303.03;;;29.42;55.54
250;BME280;109;19.806;-70.704;2023-05-29T12:25:35;101307.00;;;29.37;55.45
250;BME280;109;19.806;-70.704;2023-05-29T12:28:04;101301.09;;;29.44;55.64
250;BME280;109;19.806;-70.704;2023-05-29T12:30:36;101298.38;;;29.17;55.64
250;BME280;109;19.806;-70.704;2023-05-29T12:33:02;101291.16;;;29.04;56.30
250;BME280;109;19.806;-70.704;2023-05-29T12:35:30;101297.81;;;28.98;55.86
250;BME280;109;19.806;-70.704;2023-05-29T12:38:01;101295.50;;;29.06;55.97
250;BME280;109;19.806;-70.704;2023-05-29T12:40:32;101294.72;;;29.04;56.02
250;BME280;109;19.806;-70.704;2023-05-29T12:43:06;101284.53;;;29.09;55.90
250;BME280;109;19.806;-70.704;2023-05-29T12:45:36;101283.59;;;29.37;56.15
250;BME280;109;19.806;-70.704;2023-05-29T12:48:04;101284.91;;;29.58;55.74
250;BME280;109;19.806;-70.704;2023-05-29T12:50:33;101278.03;;;29.67;55.70
250;BME280;109;19.806;-70.704;2023-05-29T12:55:29;101268.25;;;29.79;55.32
250;BME280;109;19.806;-70.704;2023-05-29T12:57:56;101263.72;;;29.79;55.41
250;BME280;109;19.806;-70.704;2023-05-29T13:00:23;101273.03;;;29.88;55.40
250;BME280;109;19.806;-70.704;2023-05-29T13:02:50;101280.81;;;29.92;55.67
250;BME280;109;19.806;-70.704;2023-05-29T13:05:17;101277.31;;;30.17;55.24
250;BME280;109;19.806;-70.704;2023-05-29T13:07:52;101282.63;;;30.31;53.60
250;BME280;109;19.806;-70.704;2023-05-29T13:10:19;101280.84;;;30.45;54.05
250;BME280;109;19.806;-70.704;2023-05-29T13:12:47;101281.19;;;30.53;53.94
250;BME280;109;19.806;-70.704;2023-05-29T13:15:14;101276.19;;;30.72;53.78
250;BME280;109;19.806;-70.704;2023-05-29T13:17:41;101282.25;;;30.88;53.18
250;BME280;109;19.806;-70.704;2023-05-29T13:20:12;101276.84;;;30.88;52.48
250;BME280;109;19.806;-70.704;2023-05-29T13:22:40;101276.19;;;30.97;53.44
250;BME280;109;19.806;-70.704;2023-05-29T13:25:09;101279.34;;;30.79;53.29
250;BME280;109;19.806;-70.704;2023-05-29T13:27:40;101283.31;;;30.86;52.45
250;BME280;109;19.806;-70.704;2023-05-29T13:30:08;101289.72;;;30.72;52.88
250;BME280;109;19.806;-70.704;2023-05-29T13:32:35;101278.91;;;30.72;53.43
250;BME280;109;19.806;-70.704;2023-05-29T13:35:02;101279.97;;;30.95;53.54
250;BME280;109;19.806;-70.704;2023-05-29T13:37:29;101284.84;;;30.77;54.06
250;BME280;109;19.806;-70.704;2023-05-29T13:39:56;101282.06;;;30.66;55.07
250;BME280;109;19.806;-70.704;2023-05-29T13:42:23;101294.97;;;30.35;54.46
250;BME280;109;19.806;-70.704;2023-05-29T13:44:50;101288.94;;;30.45;55.56
250;BME280;109;19.806;-70.704;2023-05-29T13:47:17;101274.06;;;30.64;54.57
250;BME280;109;19.806;-70.704;2023-05-29T13:49:43;101278.50;;;30.53;54.72
250;BME280;109;19.806;-70.704;2023-05-29T13:52:10;101274.56;;;30.57;55.56
250;BME280;109;19.806;-70.704;2023-05-29T13:54:36;101275.91;;;30.51;54.72
250;BME280;109;19.806;-70.704;2023-05-29T13:57:03;101273.09;;;30.53;55.07
250;BME280;109;19.806;-70.704;2023-05-29T13:59:31;101266.69;;;30.41;54.78
250;BME280;109;19.806;-70.704;2023-05-29T14:01:58;101260.97;;;30.71;52.90
250;BME280;109;19.806;-70.704;2023-05-29T14:04:25;101262.28;;;30.91;53.18
250;BME280;109;19.806;-70.704;2023-05-29T14:06:52;101257.34;;;31.09;52.19
250;BME280;109;19.806;-70.704;2023-05-29T14:09:19;101255.28;;;31.12;52.02
250;BME280;109;19.806;-70.704;2023-05-29T14:11:55;101249.69;;;31.02;52.78
250;BME280;109;19.806;-70.704;2023-05-29T14:14:22;101250.69;;;30.76;53.16